Time;durP1;ratioP1;P1;durP2;ratioP2;P2;SDS_P1;SDS_P2;PMS_P1;PMS_P2;Temp;Humidity;BMP_temperature;BMP_pressure;BME280_temperature;BME280_humidity;BME280_pressure;Samples;Min_cycle;Max_cycle;Signal;HPM_P1;HPM_P2
2022/05/21 00:01:04;;;;;;;8.03;5.37;;;17.90;99.90;;;;;;5072075;28;20950;-68
2022/05/21 00:03:31;;;;;;;6.87;5.47;;;17.90;99.90;;;;;;5072324;28;20926;-68
2022/05/21 00:05:58;;;;;;;5.20;4.63;;;17.90;99.90;;;;;;5072319;28;20463;-69
2022/05/21 00:08:26;;;;;;;5.73;5.20;;;17.90;99.90;;;;;;5072362;28;20457;-68
2022/05/21 00:10:53;;;;;;;12.73;5.20;;;17.90;99.90;;;;;;5072060;28;20557;-68
2022/05/21 00:13:20;;;;;;;5.83;5.23;;;17.80;99.90;;;;;;5072357;28;20447;-68
2022/05/21 00:15:47;;;;;;;6.10;5.50;;;17.80;99.90;;;;;;5072144;28;20561;-68
2022/05/21 00:18:14;;;;;;;6.77;5.40;;;17.80;99.90;;;;;;5072075;28;20454;-68
2022/05/21 00:20:50;;;;;;;5.43;4.93;;;17.70;99.90;;;;;;5071896;28;20453;-68
2022/05/21 00:23:20;;;;;;;5.37;4.87;;;17.70;99.90;;;;;;5072177;28;20451;-68
2022/05/21 00:25:51;;;;;;;6.47;5.30;;;17.60;99.90;;;;;;5071886;28;20461;-68
2022/05/21 00:28:18;;;;;;;6.20;4.70;;;17.50;99.90;;;;;;5071919;28;20465;-68
2022/05/21 00:30:45;;;;;;;7.37;5.40;;;17.40;99.90;;;;;;5071358;28;20451;-68
2022/05/21 00:33:13;;;;;;;6.40;5.17;;;17.40;99.90;;;;;;5072106;28;20498;-68
2022/05/21 00:35:39;;;;;;;8.20;5.30;;;17.30;99.90;;;;;;5071768;28;20474;-68
2022/05/21 00:38:07;;;;;;;5.83;5.33;;;17.40;99.90;;;;;;5070579;28;20453;-68
2022/05/21 00:40:35;;;;;;;6.30;5.10;;;17.30;99.90;;;;;;5071508;28;20475;-68
2022/05/21 00:43:03;;;;;;;5.20;4.70;;;17.30;99.90;;;;;;5071613;28;20955;-68
2022/05/21 00:45:31;;;;;;;7.53;5.30;;;17.20;99.90;;;;;;5071437;28;20490;-68
2022/05/21 00:47:58;;;;;;;6.67;5.77;;;17.20;99.90;;;;;;5071499;28;20447;-67
2022/05/21 00:50:28;;;;;;;6.47;5.63;;;17.10;99.90;;;;;;5071374;28;20514;-67
2022/05/21 00:52:55;;;;;;;7.03;5.10;;;17.10;99.90;;;;;;5071758;28;20557;-67
2022/05/21 00:55:26;;;;;;;6.80;5.40;;;17.10;99.90;;;;;;5071493;28;20525;-68
2022/05/21 01:00:41;;;;;;;7.43;5.97;;;17.10;99.90;;;;;;5064663;28;20458;-67
2022/05/21 01:03:09;;;;;;;6.83;5.80;;;17.00;99.90;;;;;;5071271;28;20447;-68
2022/05/21 01:05:38;;;;;;;7.13;6.23;;;16.90;99.90;;;;;;5071020;28;21000;-67
2022/05/21 01:08:05;;;;;;;6.37;5.77;;;16.90;99.90;;;;;;5070823;28;20447;-67
2022/05/21 01:10:37;;;;;;;6.57;5.97;;;16.80;99.90;;;;;;5070914;28;20474;-67
2022/05/21 01:13:08;;;;;;;7.00;6.20;;;16.80;99.90;;;;;;5071051;28;20459;-67
2022/05/21 01:15:38;;;;;;;7.40;5.70;;;16.70;99.90;;;;;;5071040;28;20451;-67
2022/05/21 01:18:07;;;;;;;7.57;6.00;;;16.70;99.90;;;;;;5070977;28;20549;-68
2022/05/21 01:20:43;;;;;;;6.80;5.70;;;16.70;99.90;;;;;;5070465;28;20471;-68
2022/05/21 01:23:12;;;;;;;6.60;5.80;;;16.60;99.90;;;;;;5070978;28;20447;-67
2022/05/21 01:25:39;;;;;;;7.17;5.53;;;16.60;99.90;;;;;;5070762;28;20522;-67
2022/05/21 01:28:09;;;;;;;5.20;4.50;;;16.60;99.90;;;;;;5071177;28;20823;-67
2022/05/21 01:30:39;;;;;;;7.07;5.03;;;16.60;99.90;;;;;;5070422;28;20513;-67
2022/05/21 01:33:08;;;;;;;6.10;5.47;;;16.60;99.90;;;;;;5070227;28;20448;-68
2022/05/21 01:35:36;;;;;;;5.60;4.67;;;16.50;99.90;;;;;;5070628;28;20479;-67
2022/05/21 01:38:03;;;;;;;5.00;4.50;;;16.50;99.90;;;;;;5070020;28;20920;-66
2022/05/21 01:40:31;;;;;;;5.27;4.77;;;16.40;99.90;;;;;;5070502;28;20481;-67
2022/05/21 01:45:43;;;;;;;6.17;4.57;;;16.30;99.90;;;;;;5070662;28;20465;-67
2022/05/21 01:48:10;;;;;;;7.23;4.87;;;16.30;99.90;;;;;;5071149;28;20547;-67
2022/05/21 01:50:38;;;;;;;5.33;4.83;;;16.20;99.90;;;;;;5070405;28;20471;-68
2022/05/21 01:53:06;;;;;;;8.97;5.10;;;16.20;99.90;;;;;;5071159;28;20462;-67
2022/05/21 01:55:34;;;;;;;4.93;4.43;;;16.10;99.90;;;;;;5070920;28;20871;-67
2022/05/21 01:58:00;;;;;;;5.30;4.80;;;16.00;99.90;;;;;;5070904;28;20445;-67
2022/05/21 02:00:28;;;;;;;5.30;4.33;;;16.00;99.90;;;;;;5070274;28;20475;-67
2022/05/21 02:02:54;;;;;;;5.83;5.20;;;15.90;99.90;;;;;;5070613;28;20447;-66
2022/05/21 02:05:21;;;;;;;6.90;5.47;;;15.90;99.90;;;;;;5070493;28;20440;-67
2022/05/21 02:07:48;;;;;;;7.17;5.23;;;15.80;99.90;;;;;;5070513;28;20447;-67
2022/05/21 02:10:15;;;;;;;5.03;4.53;;;15.70;99.90;;;;;;5070223;28;20470;-67
2022/05/21 02:12:43;;;;;;;8.47;5.37;;;15.70;99.90;;;;;;5070183;28;20450;-67
2022/05/21 02:15:11;;;;;;;5.60;4.97;;;15.60;99.90;;;;;;5070343;28;20485;-68
2022/05/21 02:17:37;;;;;;;7.13;5.10;;;15.60;99.90;;;;;;5070079;28;20458;-67
2022/05/21 02:20:05;;;;;;;6.07;5.47;;;15.50;99.90;;;;;;5069943;28;20490;-68
2022/05/21 02:22:32;;;;;;;6.27;5.43;;;15.50;99.90;;;;;;5070094;28;20830;-67
2022/05/21 02:24:59;;;;;;;5.90;5.30;;;15.40;99.90;;;;;;5070074;28;20446;-68
2022/05/21 02:27:25;;;;;;;6.50;5.83;;;15.40;99.90;;;;;;5069845;28;20454;-67
2022/05/21 02:29:54;;;;;;;5.80;5.03;;;15.30;99.90;;;;;;5069586;28;20565;-67
2022/05/21 02:32:20;;;;;;;6.77;6.07;;;15.30;99.90;;;;;;5069986;28;20461;-67
2022/05/21 02:34:47;;;;;;;8.10;5.60;;;15.20;99.90;;;;;;5069807;28;20479;-67
2022/05/21 02:39:58;;;;;;;5.43;4.57;;;15.10;99.90;;;;;;5069412;28;20447;-68
2022/05/21 02:45:14;;;;;;;5.63;5.00;;;15.00;99.90;;;;;;5069711;28;20417;-67
2022/05/21 02:47:41;;;;;;;6.50;5.60;;;14.90;99.90;;;;;;5069869;28;20526;-67
2022/05/21 02:50:10;;;;;;;5.50;5.00;;;14.80;99.90;;;;;;5069186;28;20463;-67
2022/05/21 02:52:37;;;;;;;5.90;5.30;;;14.80;99.90;;;;;;5069680;28;20454;-67
2022/05/21 02:55:04;;;;;;;6.60;5.77;;;14.80;99.90;;;;;;5069741;28;20486;-67
2022/05/21 02:57:31;;;;;;;7.23;6.53;;;14.70;99.90;;;;;;5069751;28;20447;-67
2022/05/21 03:00:01;;;;;;;7.83;6.10;;;14.70;99.90;;;;;;5069204;28;20913;-67
2022/05/21 03:02:29;;;;;;;6.90;6.30;;;14.70;99.90;;;;;;5069141;28;20893;-67
2022/05/21 03:04:55;;;;;;;8.17;6.67;;;14.60;99.90;;;;;;5069264;28;20439;-67
2022/05/21 03:07:22;;;;;;;9.50;7.27;;;14.50;99.90;;;;;;5069678;28;20530;-67
2022/05/21 03:12:34;;;;;;;8.10;6.90;;;14.50;99.90;;;;;;5067140;28;20481;-67
2022/05/21 03:15:04;;;;;;;9.83;7.80;;;14.40;99.90;;;;;;5066358;28;20514;-68
2022/05/21 03:17:32;;;;;;;8.43;7.40;;;14.40;99.90;;;;;;5076345;28;20446;-68
2022/05/21 03:19:59;;;;;;;9.00;8.10;;;14.40;99.90;;;;;;5069916;28;20462;-68
2022/05/21 03:22:25;;;;;;;8.03;7.23;;;14.30;99.90;;;;;;5069534;28;20491;-67
2022/05/21 03:24:52;;;;;;;9.77;8.40;;;14.30;99.90;;;;;;5069646;28;20454;-68
2022/05/21 03:27:19;;;;;;;8.80;8.00;;;14.20;99.90;;;;;;5069415;28;20453;-67
2022/05/21 03:29:46;;;;;;;8.73;7.90;;;14.20;99.90;;;;;;5069074;28;20477;-67
2022/05/21 03:32:13;;;;;;;10.27;8.10;;;14.10;99.90;;;;;;5069428;28;20455;-67
2022/05/21 03:34:41;;;;;;;9.53;8.57;;;14.10;99.90;;;;;;5069448;28;20471;-67
2022/05/21 03:37:08;;;;;;;10.70;9.23;;;14.00;99.90;;;;;;5069306;28;20876;-67
2022/05/21 03:39:35;;;;;;;10.73;7.87;;;14.00;99.90;;;;;;5069188;28;21010;-68
2022/05/21 03:42:30;;;;;;;8.80;7.90;;;14.00;99.90;;;;;;5068373;28;20447;-67
2022/05/21 03:44:57;;;;;;;10.40;9.00;;;14.00;99.90;;;;;;5066951;28;20451;-67
2022/05/21 03:47:23;;;;;;;8.97;8.07;;;14.00;99.90;;;;;;5068889;28;20439;-68
2022/05/21 03:49:52;;;;;;;9.87;8.87;;;13.90;99.90;;;;;;5069033;28;20819;-67
2022/05/21 03:52:20;;;;;;;9.20;8.33;;;13.90;99.90;;;;;;5069233;28;20447;-67
2022/05/21 03:54:47;;;;;;;10.37;9.40;;;13.80;99.90;;;;;;5068841;28;20474;-67
2022/05/21 03:57:15;;;;;;;12.07;10.13;;;13.80;99.90;;;;;;5069347;28;20447;-68
2022/05/21 03:59:43;;;;;;;9.63;8.57;;;13.80;99.90;;;;;;5069139;28;20651;-67
2022/05/21 04:02:10;;;;;;;10.53;9.40;;;13.80;99.90;;;;;;5068812;28;20470;-67
2022/05/21 04:04:37;;;;;;;9.93;8.83;;;13.80;99.90;;;;;;5069048;28;20443;-67
2022/05/21 04:07:06;;;;;;;11.57;9.40;;;13.80;99.90;;;;;;5069243;28;20447;-68
2022/05/21 04:09:33;;;;;;;9.93;8.20;;;13.80;99.90;;;;;;5068809;28;20470;-67
2022/05/21 04:12:00;;;;;;;10.20;9.00;;;13.80;99.90;;;;;;5068968;28;20450;-67
2022/05/21 04:14:28;;;;;;;9.30;8.30;;;13.90;99.90;;;;;;5072282;28;20540;-67
2022/05/21 04:16:55;;;;;;;10.43;9.20;;;13.80;99.90;;;;;;5072670;28;20450;-67
2022/05/21 04:19:23;;;;;;;11.03;9.20;;;13.90;99.90;;;;;;5072624;28;20474;-67
2022/05/21 04:21:50;;;;;;;9.67;8.73;;;13.90;99.90;;;;;;5072464;28;20461;-67
2022/05/21 04:24:18;;;;;;;11.07;9.87;;;13.90;99.90;;;;;;5073000;28;20442;-67
2022/05/21 04:26:46;;;;;;;9.53;8.53;;;13.90;99.90;;;;;;5072840;28;20469;-67
2022/05/21 04:29:14;;;;;;;10.07;9.00;;;13.90;99.90;;;;;;5072819;28;20466;-67
2022/05/21 04:31:41;;;;;;;8.67;7.77;;;13.90;99.90;;;;;;5072214;28;20447;-68
2022/05/21 04:34:08;;;;;;;10.37;9.30;;;13.90;99.90;;;;;;5072704;28;20446;-67
2022/05/21 04:36:38;;;;;;;9.73;8.20;;;13.90;99.90;;;;;;5072160;28;21205;-67
2022/05/21 04:39:05;;;;;;;9.30;8.50;;;14.00;99.90;;;;;;5072508;28;20496;-67
2022/05/21 04:41:34;;;;;;;8.63;7.73;;;13.90;99.90;;;;;;5072071;28;20455;-68
2022/05/21 04:44:02;;;;;;;9.50;8.50;;;14.00;99.90;;;;;;5072281;28;20496;-68
2022/05/21 04:46:30;;;;;;;9.73;8.70;;;14.00;99.90;;;;;;5072231;28;20438;-67
2022/05/21 04:48:57;;;;;;;8.07;7.27;;;14.00;99.90;;;;;;5072129;28;20490;-67
2022/05/21 04:51:24;;;;;;;14.50;8.40;;;14.00;99.90;;;;;;5071544;28;20527;-68
2022/05/21 04:53:50;;;;;;;11.00;7.27;;;14.00;99.90;;;;;;5072123;28;20475;-70
2022/05/21 04:56:17;;;;;;;9.03;7.50;;;14.10;99.90;;;;;;5072191;28;20494;-68
2022/05/21 04:58:46;;;;;;;8.40;7.60;;;14.10;99.90;;;;;;5069084;28;20463;-69
2022/05/21 05:01:12;;;;;;;7.67;6.97;;;14.10;99.90;;;;;;5070477;28;20482;-67
2022/05/21 05:03:39;;;;;;;9.70;7.47;;;14.10;99.90;;;;;;5071408;28;20459;-70
2022/05/21 05:06:08;;;;;;;8.20;7.50;;;14.10;99.90;;;;;;5072034;28;20925;-69
2022/05/21 05:08:36;;;;;;;11.10;7.47;;;14.10;99.90;;;;;;5071724;28;20657;-67
2022/05/21 05:11:03;;;;;;;8.23;6.80;;;14.10;99.90;;;;;;5071634;28;20447;-66
2022/05/21 05:13:30;;;;;;;7.97;7.17;;;14.10;99.90;;;;;;5071530;28;20473;-69
2022/05/21 05:15:58;;;;;;;8.03;7.20;;;14.20;99.90;;;;;;5070676;28;20479;-67
2022/05/21 05:18:30;;;;;;;8.23;7.43;;;14.20;99.90;;;;;;5071554;28;21171;-67
2022/05/21 05:20:57;;;;;;;8.30;7.10;;;14.30;99.90;;;;;;5071595;28;20450;-67
2022/05/21 05:23:24;;;;;;;8.07;7.00;;;14.30;99.90;;;;;;5071181;28;20443;-67
2022/05/21 05:25:52;;;;;;;7.83;7.10;;;14.30;99.90;;;;;;5071339;28;20435;-69
2022/05/21 05:28:21;;;;;;;7.83;7.03;;;14.40;99.90;;;;;;5071456;28;20447;-68
2022/05/21 05:30:48;;;;;;;7.73;7.03;;;14.40;99.90;;;;;;5071292;28;20554;-68
2022/05/21 05:33:17;;;;;;;7.83;7.13;;;14.50;99.90;;;;;;5071333;28;20446;-68
2022/05/21 05:35:44;;;;;;;8.47;7.57;;;14.50;99.90;;;;;;5069887;28;21041;-69
2022/05/21 05:38:13;;;;;;;12.50;6.63;;;14.60;99.90;;;;;;5069867;28;20447;-69
2022/05/21 05:40:42;;;;;;;7.33;6.63;;;14.60;99.90;;;;;;5070882;28;20443;-69
2022/05/21 05:43:09;;;;;;;6.60;5.80;;;14.70;99.90;;;;;;5070971;28;20451;-69
2022/05/21 05:45:36;;;;;;;7.20;6.60;;;14.70;99.90;;;;;;5070659;28;20535;-68
2022/05/21 05:48:03;;;;;;;7.27;6.00;;;14.70;99.90;;;;;;5070714;28;20451;-68
2022/05/21 05:50:32;;;;;;;6.13;5.60;;;14.80;99.90;;;;;;5070388;28;20853;-69
2022/05/21 05:53:01;;;;;;;7.67;5.27;;;14.80;99.90;;;;;;5070826;28;20447;-68
2022/05/21 05:55:29;;;;;;;6.17;5.47;;;14.90;99.90;;;;;;5067834;28;20473;-67
2022/05/21 05:57:55;;;;;;;6.93;5.67;;;15.00;99.90;;;;;;5070176;28;20453;-67
2022/05/21 06:00:21;;;;;;;6.90;5.27;;;15.00;99.90;;;;;;5070247;28;21004;-67
2022/05/21 06:03:01;;;;;;;6.00;5.23;;;15.10;99.90;;;;;;5070419;28;20455;-67
2022/05/21 06:05:30;;;;;;;6.80;4.80;;;15.10;99.90;;;;;;5070692;28;20504;-68
2022/05/21 06:08:00;;;;;;;5.97;4.90;;;15.20;99.90;;;;;;5070308;28;20478;-67
2022/05/21 06:10:29;;;;;;;4.97;4.10;;;15.20;99.90;;;;;;5069865;28;20839;-66
2022/05/21 06:12:57;;;;;;;6.87;4.67;;;15.30;99.90;;;;;;5070533;28;20451;-66
2022/05/21 06:15:24;;;;;;;5.70;5.20;;;15.30;99.90;;;;;;5070269;28;20489;-65
2022/05/21 06:17:52;;;;;;;6.03;4.70;;;15.30;99.90;;;;;;5070314;28;20450;-66
2022/05/21 06:20:22;;;;;;;4.77;4.10;;;15.30;99.90;;;;;;5069856;28;20934;-67
2022/05/21 06:22:49;;;;;;;3.87;3.40;;;15.30;99.90;;;;;;5069977;28;20454;-66
2022/05/21 06:25:19;;;;;;;5.83;3.70;;;15.40;99.90;;;;;;5070079;28;20443;-67
2022/05/21 06:27:47;;;;;;;4.83;3.93;;;15.40;99.90;;;;;;5070148;28;20443;-66
2022/05/21 06:30:15;;;;;;;4.27;3.87;;;15.40;99.90;;;;;;5069654;28;20505;-66
2022/05/21 06:32:43;;;;;;;4.00;3.20;;;15.50;99.90;;;;;;5070008;28;20447;-67
2022/05/21 06:35:11;;;;;;;3.83;3.20;;;15.60;99.90;;;;;;5069387;28;20557;-67
2022/05/21 06:37:38;;;;;;;3.93;3.43;;;15.70;99.90;;;;;;5069781;28;20442;-67
2022/05/21 06:40:07;;;;;;;4.27;3.17;;;15.70;99.90;;;;;;5069757;28;20467;-66
2022/05/21 06:42:35;;;;;;;4.10;2.93;;;15.70;99.90;;;;;;5069967;28;20443;-66
2022/05/21 06:45:02;;;;;;;3.63;2.90;;;15.80;99.90;;;;;;5069923;28;20538;-66
2022/05/21 06:47:29;;;;;;;5.13;3.20;;;15.90;99.90;;;;;;5070041;28;20525;-67
2022/05/21 06:49:56;;;;;;;3.40;2.90;;;16.00;99.90;;;;;;5069370;28;20853;-67
2022/05/21 06:52:24;;;;;;;4.73;2.70;;;16.10;99.90;;;;;;5069808;28;20447;-67
2022/05/21 06:54:51;;;;;;;5.23;2.87;;;16.30;99.90;;;;;;5069862;28;20455;-67
2022/05/21 06:57:18;;;;;;;2.90;2.00;;;16.40;99.90;;;;;;5069788;28;20486;-67
2022/05/21 06:59:46;;;;;;;4.40;2.80;;;16.60;99.90;;;;;;5069557;28;20470;-67
2022/05/21 07:02:13;;;;;;;3.80;2.77;;;16.70;99.90;;;;;;5069732;28;20463;-67
2022/05/21 07:07:33;;;;;;;3.43;1.60;;;16.90;99.90;;;;;;5069944;28;20414;-66
2022/05/21 07:10:01;;;;;;;4.33;2.50;;;17.00;99.90;;;;;;5069543;28;20473;-67
2022/05/21 07:12:28;;;;;;;4.90;2.80;;;17.10;99.90;;;;;;5069781;28;20550;-65
2022/05/21 07:14:56;;;;;;;2.67;1.80;;;17.20;99.90;;;;;;5069545;28;20446;-67
2022/05/21 07:17:23;;;;;;;3.80;2.53;;;17.20;99.90;;;;;;5069758;28;20490;-68
2022/05/21 07:19:49;;;;;;;2.70;1.80;;;17.00;99.90;;;;;;5069406;28;20467;-67
2022/05/21 07:22:16;;;;;;;3.13;2.30;;;16.90;99.90;;;;;;5069688;28;20443;-66
2022/05/21 07:24:44;;;;;;;3.23;1.97;;;16.80;99.90;;;;;;5069441;28;21039;-67
2022/05/21 07:27:12;;;;;;;2.53;1.70;;;16.90;99.90;;;;;;5069299;28;20453;-68
2022/05/21 07:29:39;;;;;;;3.17;1.97;;;17.00;99.90;;;;;;5069088;28;20467;-65
2022/05/21 07:32:16;;;;;;;2.90;1.50;;;17.10;99.90;;;;;;5069076;28;20819;-68
2022/05/21 07:34:42;;;;;;;5.73;2.27;;;17.20;99.90;;;;;;5069371;28;20443;-67
2022/05/21 07:37:09;;;;;;;2.80;2.00;;;17.20;99.90;;;;;;5069048;28;20590;-66
2022/05/21 07:39:36;;;;;;;2.07;1.40;;;17.20;99.90;;;;;;5069135;28;20469;-67
2022/05/21 07:42:04;;;;;;;3.70;1.87;;;17.10;99.90;;;;;;5068717;28;20454;-67
2022/05/21 07:44:31;;;;;;;2.40;1.17;;;17.20;99.90;;;;;;5069161;28;20952;-67
2022/05/21 07:46:58;;;;;;;3.47;1.47;;;17.20;99.90;;;;;;5070290;28;20443;-67
2022/05/21 07:49:26;;;;;;;4.03;1.13;;;17.40;99.90;;;;;;5073132;28;20574;-67
2022/05/21 07:51:53;;;;;;;3.00;1.30;;;17.40;99.90;;;;;;5072721;28;20824;-66
2022/05/21 07:54:21;;;;;;;2.40;1.20;;;17.30;99.90;;;;;;5073109;28;20964;-68
2022/05/21 07:56:47;;;;;;;2.17;1.33;;;17.40;99.90;;;;;;5072731;28;21257;-67
2022/05/21 07:59:14;;;;;;;7.73;2.10;;;17.30;99.90;;;;;;5073052;28;20856;-67
2022/05/21 08:01:43;;;;;;;2.90;1.20;;;17.40;99.90;;;;;;5072103;28;20446;-66
2022/05/21 08:04:09;;;;;;;2.77;1.20;;;17.40;99.90;;;;;;5073680;28;20632;-66
2022/05/21 08:06:38;;;;;;;2.40;1.10;;;17.40;99.90;;;;;;5073363;28;20447;-67
2022/05/21 08:09:05;;;;;;;3.53;1.40;;;17.40;99.90;;;;;;5075398;28;20724;-66
2022/05/21 08:11:32;;;;;;;2.50;1.30;;;17.40;99.90;;;;;;5075059;28;20462;-66
2022/05/21 08:13:58;;;;;;;2.80;1.37;;;17.60;99.90;;;;;;5075404;28;20450;-65
2022/05/21 08:16:26;;;;;;;4.43;1.20;;;17.70;99.90;;;;;;5075164;28;20487;-65
2022/05/21 08:18:53;;;;;;;2.37;1.30;;;17.80;99.90;;;;;;5074608;28;20475;-67
2022/05/21 08:21:20;;;;;;;2.80;1.60;;;17.90;99.90;;;;;;5074315;28;20462;-65
2022/05/21 08:29:17;;;;;;;2.83;1.50;;;18.10;99.90;;;;;;5075140;28;20442;-66
2022/05/21 08:31:44;;;;;;;3.43;1.20;;;18.20;99.90;;;;;;5073522;28;20454;-66
2022/05/21 08:34:11;;;;;;;2.90;1.20;;;18.40;99.90;;;;;;5089624;28;20462;-66
2022/05/21 08:36:38;;;;;;;3.43;1.30;;;18.50;99.90;;;;;;5073936;28;20562;-66
2022/05/21 08:39:09;;;;;;;3.43;1.33;;;18.60;99.90;;;;;;5064958;28;21017;-66
2022/05/21 08:41:39;;;;;;;2.93;1.20;;;18.70;99.90;;;;;;5072607;28;20454;-67
2022/05/21 08:44:09;;;;;;;2.60;1.30;;;18.60;99.90;;;;;;5073645;28;20443;-67
2022/05/21 08:46:42;;;;;;;3.47;1.00;;;18.60;99.90;;;;;;5073641;28;20530;-66
2022/05/21 08:49:16;;;;;;;2.23;1.20;;;18.70;99.90;;;;;;5073461;28;20516;-66
2022/05/21 08:51:49;;;;;;;3.20;1.10;;;18.80;99.90;;;;;;5073362;28;20454;-67
2022/05/21 08:54:23;;;;;;;2.90;1.40;;;18.90;99.90;;;;;;5073694;28;20481;-69
2022/05/21 08:56:52;;;;;;;3.70;1.47;;;18.80;99.90;;;;;;5073383;28;20474;-68
2022/05/21 08:59:21;;;;;;;3.43;1.57;;;18.90;99.90;;;;;;5072520;28;20459;-67
2022/05/21 09:01:48;;;;;;;5.47;1.87;;;18.80;99.90;;;;;;5072488;28;20451;-66
2022/05/21 09:04:15;;;;;;;3.43;1.87;;;18.80;99.90;;;;;;5068137;28;20446;-65
2022/05/21 09:06:50;;;;;;;3.90;1.63;;;18.80;99.90;;;;;;5055635;28;21036;-66
2022/05/21 09:09:29;;;;;;;2.40;1.17;;;19.00;99.90;;;;;;5057482;28;21144;-66
2022/05/21 09:12:02;;;;;;;4.67;1.80;;;19.00;99.90;;;;;;5069881;28;20450;-66
2022/05/21 09:14:36;;;;;;;2.77;1.40;;;19.10;99.90;;;;;;5074039;28;20951;-67
2022/05/21 09:17:09;;;;;;;3.27;1.33;;;19.10;99.90;;;;;;5073213;28;20882;-66
2022/05/21 09:19:38;;;;;;;2.23;1.30;;;19.20;99.90;;;;;;5072670;28;20541;-66
2022/05/21 09:22:10;;;;;;;2.50;1.27;;;19.30;99.90;;;;;;5068182;28;20452;-66
2022/05/21 09:24:40;;;;;;;4.50;1.80;;;19.30;99.90;;;;;;5068511;28;20447;-67
2022/05/21 09:27:25;;;;;;;3.10;1.20;;;19.30;99.90;;;;;;5067805;28;20526;-66
2022/05/21 09:29:53;;;;;;;2.67;1.40;;;19.20;99.90;;;;;;5065540;28;20451;-66
2022/05/21 09:32:22;;;;;;;3.50;1.27;;;19.40;99.90;;;;;;5059150;28;20822;-64
2022/05/21 09:35:05;;;;;;;2.20;1.20;;;19.60;99.90;;;;;;5072347;28;20454;-66
2022/05/21 09:37:32;;;;;;;4.43;1.20;;;19.70;99.90;;;;;;5068797;28;20478;-63
2022/05/21 09:40:00;;;;;;;2.80;1.70;;;19.70;99.90;;;;;;5067713;28;20506;-66
2022/05/21 09:45:26;;;;;;;2.50;1.30;;;19.70;99.90;;;;;;5018250;28;20473;-66
2022/05/21 09:47:55;;;;;;;2.63;1.20;;;20.00;99.90;;;;;;5072331;28;20439;-66
2022/05/21 09:50:24;;;;;;;2.63;1.40;;;20.60;99.90;;;;;;5068888;28;20451;-65
2022/05/21 09:52:51;;;;;;;6.60;1.30;;;21.00;99.90;;;;;;5064649;28;20447;-67
2022/05/21 09:55:26;;;;;;;2.50;1.50;;;20.90;99.40;;;;;;5061732;28;20462;-64
2022/05/21 09:57:54;;;;;;;2.97;1.50;;;21.10;99.90;;;;;;5071315;28;20543;-66
2022/05/21 10:00:24;;;;;;;3.00;1.30;;;21.50;99.70;;;;;;5067674;28;20463;-65
2022/05/21 10:02:54;;;;;;;2.37;1.37;;;21.80;99.00;;;;;;5066833;28;20447;-66
2022/05/21 10:05:25;;;;;;;3.67;1.10;;;22.10;99.40;;;;;;5070957;28;20497;-66
2022/05/21 10:11:02;;;;;;;3.50;1.33;;;23.10;95.70;;;;;;5058291;28;20435;-65
2022/05/21 10:13:37;;;;;;;3.47;1.40;;;22.70;95.50;;;;;;5067273;28;20439;-65
2022/05/21 10:16:18;;;;;;;5.13;1.40;;;22.90;96.20;;;;;;5058458;28;20444;-65
2022/05/21 10:18:51;;;;;;;2.10;1.03;;;22.90;96.40;;;;;;5070467;28;20479;-66
2022/05/21 10:21:25;;;;;;;2.70;1.40;;;23.00;96.00;;;;;;5071580;28;20454;-65
2022/05/21 10:23:56;;;;;;;4.70;1.50;;;23.40;94.90;;;;;;5072027;28;20446;-66
2022/05/21 10:26:46;;;;;;;3.40;1.10;;;23.40;94.20;;;;;;5071637;28;20538;-66
2022/05/21 10:29:39;;;;;;;1.90;1.00;;;23.30;94.80;;;;;;5062207;28;20460;-67
2022/05/21 10:32:14;;;;;;;3.03;1.43;;;23.60;93.70;;;;;;5060142;28;20451;-66
2022/05/21 10:34:53;;;;;;;2.67;1.33;;;23.10;93.30;;;;;;5070584;28;20478;-66
2022/05/21 10:37:34;;;;;;;2.80;1.20;;;22.70;93.40;;;;;;5070561;28;20486;-67
2022/05/21 10:40:19;;;;;;;2.53;1.13;;;23.00;93.90;;;;;;5068614;28;21003;-67
2022/05/21 10:43:06;;;;;;;2.70;1.63;;;22.90;94.60;;;;;;5071149;28;20920;-67
2022/05/21 10:45:36;;;;;;;4.37;1.40;;;22.70;93.50;;;;;;5071082;28;20493;-66
2022/05/21 10:48:35;;;;;;;3.30;1.43;;;22.70;94.10;;;;;;5071712;28;20443;-67
2022/05/21 10:51:09;;;;;;;4.53;1.33;;;23.40;94.60;;;;;;5071517;28;20501;-67
2022/05/21 10:53:49;;;;;;;3.10;1.20;;;24.00;93.20;;;;;;5071995;28;20846;-67
2022/05/21 10:56:39;;;;;;;3.00;1.20;;;24.20;92.80;;;;;;5067542;28;20827;-66
2022/05/21 10:59:28;;;;;;;2.20;1.13;;;24.50;93.00;;;;;;5070405;28;20485;-66
2022/05/21 11:02:10;;;;;;;2.50;1.00;;;24.30;91.40;;;;;;5068305;28;20455;-67
2022/05/21 11:05:09;;;;;;;3.00;1.40;;;24.10;92.10;;;;;;5071558;28;20447;-66
2022/05/21 11:07:45;;;;;;;6.03;1.30;;;24.40;92.00;;;;;;5071084;28;20439;-66
2022/05/21 11:10:19;;;;;;;2.93;1.10;;;24.40;90.40;;;;;;5070178;28;20546;-67
2022/05/21 11:12:53;;;;;;;2.77;1.40;;;24.30;90.00;;;;;;5070396;28;20470;-67
2022/05/21 11:15:34;;;;;;;3.07;1.57;;;24.50;90.70;;;;;;5070023;28;20442;-67
2022/05/21 11:18:05;;;;;;;2.77;1.20;;;24.10;90.00;;;;;;5070302;28;20478;-67
2022/05/21 11:20:37;;;;;;;3.40;1.40;;;24.30;90.70;;;;;;5070286;28;20463;-66
2022/05/21 11:23:09;;;;;;;3.20;1.20;;;24.60;90.30;;;;;;5070564;28;20431;-65
2022/05/21 11:25:41;;;;;;;4.00;1.20;;;24.90;90.10;;;;;;5071251;28;20455;-65
2022/05/21 11:28:24;;;;;;;3.03;1.30;;;25.10;88.40;;;;;;5070468;28;20440;-66
2022/05/21 11:30:56;;;;;;;3.60;1.50;;;25.10;89.60;;;;;;5070330;28;20507;-66
2022/05/21 11:39:02;;;;;;;2.87;1.30;;;25.10;85.90;;;;;;5070298;28;20456;-67
2022/05/21 11:41:58;;;;;;;1.90;1.00;;;25.10;84.30;;;;;;5069771;28;20451;-67
2022/05/21 11:47:43;;;;;;;3.37;1.50;;;25.70;83.30;;;;;;5070158;28;20418;-67
2022/05/21 11:50:16;;;;;;;2.93;1.00;;;25.80;81.60;;;;;;5068886;28;21016;-65
2022/05/21 11:53:34;;;;;;;2.87;1.17;;;25.60;82.40;;;;;;5070132;28;20492;-63
2022/05/21 11:56:04;;;;;;;3.70;1.10;;;25.30;81.60;;;;;;5069596;28;20823;-66
2022/05/21 11:59:17;;;;;;;3.90;1.40;;;25.30;82.50;;;;;;5069856;28;20483;-66
2022/05/21 12:02:09;;;;;;;2.40;1.00;;;25.40;80.70;;;;;;5069918;28;20486;-66
2022/05/21 12:05:08;;;;;;;4.30;1.80;;;25.60;81.30;;;;;;5070138;28;20435;-66
2022/05/21 12:07:57;;;;;;;3.20;1.40;;;25.50;84.10;;;;;;5036013;28;20870;-66
2022/05/21 12:10:31;;;;;;;3.40;1.27;;;25.60;81.40;;;;;;5069540;28;20485;-64
2022/05/21 12:13:15;;;;;;;3.57;1.50;;;25.50;83.20;;;;;;5069750;28;20461;-66
2022/05/21 12:15:46;;;;;;;3.23;1.37;;;26.00;86.20;;;;;;5065520;28;20451;-66
2022/05/21 12:18:33;;;;;;;3.80;1.40;;;26.10;81.40;;;;;;5069956;28;20925;-66
2022/05/21 12:21:03;;;;;;;3.40;1.20;;;25.90;78.30;;;;;;5067194;28;20446;-65
2022/05/21 12:24:06;;;;;;;3.07;1.10;;;26.10;77.60;;;;;;5070834;28;20490;-66
2022/05/21 12:26:35;;;;;;;3.20;1.37;;;26.20;79.10;;;;;;5070457;28;20446;-66
2022/05/21 12:29:17;;;;;;;3.90;1.47;;;27.00;78.60;;;;;;5070521;28;20459;-66
2022/05/21 12:31:46;;;;;;;2.87;1.30;;;26.80;76.30;;;;;;5070910;28;20522;-66
2022/05/21 12:34:36;;;;;;;3.17;1.30;;;26.30;76.90;;;;;;5073040;28;20944;-66
2022/05/21 12:37:12;;;;;;;3.57;1.60;;;25.80;75.90;;;;;;5074727;28;20478;-67
2022/05/21 12:39:49;;;;;;;3.10;1.60;;;26.30;76.70;;;;;;5074910;28;20984;-66
2022/05/21 12:42:21;;;;;;;3.20;1.23;;;26.80;79.90;;;;;;5073823;28;20454;-66
2022/05/21 12:44:48;;;;;;;3.97;1.37;;;26.90;74.70;;;;;;5070321;28;20477;-65
2022/05/21 12:47:28;;;;;;;3.90;1.37;;;27.20;76.10;;;;;;5073582;28;20451;-66
2022/05/21 12:49:56;;;;;;;4.50;1.60;;;27.30;74.00;;;;;;5068933;28;20535;-65
2022/05/21 12:52:30;;;;;;;4.27;1.70;;;27.50;74.00;;;;;;5070839;28;20487;-66
2022/05/21 12:55:18;;;;;;;3.10;1.27;;;27.60;74.20;;;;;;5071074;28;20572;-67
2022/05/21 12:57:46;;;;;;;4.77;1.43;;;27.40;70.80;;;;;;5054834;28;20483;-68
2022/05/21 13:00:15;;;;;;;3.97;1.40;;;27.60;72.40;;;;;;5053165;28;20463;-64
2022/05/21 13:02:45;;;;;;;2.83;1.30;;;27.90;69.60;;;;;;5055142;28;20841;-68
2022/05/21 13:05:19;;;;;;;3.73;1.50;;;27.30;69.80;;;;;;5056125;28;20491;-67
2022/05/21 13:07:49;;;;;;;4.53;1.50;;;26.80;70.70;;;;;;5069264;28;20447;-65
2022/05/21 13:10:22;;;;;;;3.77;1.30;;;26.70;72.70;;;;;;5071841;28;20481;-66
2022/05/21 13:12:52;;;;;;;3.40;1.37;;;26.60;72.90;;;;;;5073146;28;20447;-66
2022/05/21 13:15:22;;;;;;;3.10;1.37;;;26.20;73.50;;;;;;5073517;28;20447;-65
2022/05/21 13:18:05;;;;;;;3.20;1.47;;;25.30;73.80;;;;;;5071680;28;20494;-65
2022/05/21 13:20:39;;;;;;;4.43;1.30;;;24.20;76.50;;;;;;5074260;28;20482;-65
2022/05/21 13:23:24;;;;;;;3.90;1.50;;;23.80;77.60;;;;;;5074278;28;20533;-65
2022/05/21 13:25:53;;;;;;;3.00;1.27;;;24.00;79.60;;;;;;5069145;28;20451;-65
2022/05/21 13:28:22;;;;;;;4.30;1.80;;;24.00;79.00;;;;;;5070993;28;20522;-66
2022/05/21 13:30:51;;;;;;;3.43;1.57;;;24.60;79.30;;;;;;5077058;28;20494;-65
2022/05/21 13:33:30;;;;;;;2.73;1.47;;;25.30;76.70;;;;;;5078192;28;20803;-66
2022/05/21 13:35:59;;;;;;;3.40;1.80;;;25.30;75.70;;;;;;5078164;28;20447;-66
2022/05/21 13:38:32;;;;;;;4.73;1.80;;;24.90;76.00;;;;;;5077613;28;20482;-67
2022/05/21 13:41:02;;;;;;;3.60;1.30;;;24.90;75.10;;;;;;5076758;28;20450;-66